Aviation Digital Data Service (ADDS)

Output produced by METARs form (2226 UTC 23 March 2019)
found at http://www.aviationweather.gov/metar/data/
 
Forecast for: TNCC (HATO AIR CURACAO, VI)
Text: TAF TNCC 231600Z 2318/2418 11014G25KT 9999 SCT020
Forecast period: 1800 UTC 23 March 2019 to 1800 UTC 24 March 2019
Forecast type: FROM: standard forecast or significant change
Winds: from the ESE (110 degrees) at 16 MPH (14 knots; 7.2 m/s)
gusting to 29 MPH (25 knots; 12.9 m/s)
Visibility: 6 or more miles 10+ km)
Ceiling: at least 12,000 feet AGL
Clouds: scattered clouds at 2000 feet AGL
Weather: no significant weather forecast for this period
Text: TEMPO 2318/2414 BKN015
Forecast period: 1800 UTC 23 March 2019 to 1400 UTC 24 March 2019
Forecast type: TEMPORARY: The following changes expected for less than half the time period
Visibility: missing
Ceiling: 1500 feet AGL
Clouds: broken clouds at 1500 feet AGL
Weather: no significant weather forecast for this period